sensor_id;sensor_type;location;lat;lon;timestamp;P1;durP1;ratioP1;P2;durP2;ratioP2
21567;SDS011;10944;42.590;12.630;2022-09-02T00:00:44;6.63;;;3.10;;
21567;SDS011;10944;42.590;12.630;2022-09-02T00:03:11;5.10;;;3.00;;
21567;SDS011;10944;42.590;12.630;2022-09-02T00:05:37;8.48;;;3.53;;
21567;SDS011;10944;42.590;12.630;2022-09-02T00:08:04;6.82;;;4.10;;
21567;SDS011;10944;42.590;12.630;2022-09-02T00:10:31;11.65;;;4.00;;
21567;SDS011;10944;42.590;12.630;2022-09-02T00:13:07;13.23;;;5.28;;
21567;SDS011;10944;42.590;12.630;2022-09-02T00:15:34;9.50;;;4.40;;
21567;SDS011;10944;42.590;12.630;2022-09-02T00:18:00;6.65;;;4.45;;
21567;SDS011;10944;42.590;12.630;2022-09-02T00:20:27;10.48;;;4.47;;
21567;SDS011;10944;42.590;12.630;2022-09-02T00:22:54;6.97;;;4.47;;
21567;SDS011;10944;42.590;12.630;2022-09-02T00:25:20;9.80;;;4.68;;
21567;SDS011;10944;42.590;12.630;2022-09-02T00:27:47;10.43;;;4.70;;
21567;SDS011;10944;42.590;12.630;2022-09-02T00:30:13;8.88;;;5.25;;
21567;SDS011;10944;42.590;12.630;2022-09-02T00:32:39;7.65;;;4.80;;
21567;SDS011;10944;42.590;12.630;2022-09-02T00:35:05;9.00;;;3.97;;
21567;SDS011;10944;42.590;12.630;2022-09-02T00:37:32;9.57;;;3.53;;
21567;SDS011;10944;42.590;12.630;2022-09-02T00:39:58;9.02;;;3.60;;
21567;SDS011;10944;42.590;12.630;2022-09-02T00:42:24;6.55;;;3.80;;
21567;SDS011;10944;42.590;12.630;2022-09-02T00:44:50;6.65;;;4.07;;
21567;SDS011;10944;42.590;12.630;2022-09-02T00:47:17;8.00;;;4.18;;
21567;SDS011;10944;42.590;12.630;2022-09-02T00:49:44;9.38;;;3.40;;
21567;SDS011;10944;42.590;12.630;2022-09-02T00:52:23;7.97;;;4.05;;
21567;SDS011;10944;42.590;12.630;2022-09-02T00:55:12;6.72;;;3.80;;
21567;SDS011;10944;42.590;12.630;2022-09-02T00:57:52;6.32;;;3.40;;
21567;SDS011;10944;42.590;12.630;2022-09-02T01:00:24;6.88;;;3.38;;
21567;SDS011;10944;42.590;12.630;2022-09-02T01:02:54;6.82;;;3.60;;
21567;SDS011;10944;42.590;12.630;2022-09-02T01:05:22;8.00;;;3.83;;
21567;SDS011;10944;42.590;12.630;2022-09-02T01:07:50;8.93;;;3.90;;
21567;SDS011;10944;42.590;12.630;2022-09-02T01:10:20;7.50;;;3.97;;
21567;SDS011;10944;42.590;12.630;2022-09-02T01:13:00;7.10;;;3.60;;
21567;SDS011;10944;42.590;12.630;2022-09-02T01:15:37;10.13;;;4.22;;
21567;SDS011;10944;42.590;12.630;2022-09-02T01:18:08;6.78;;;3.78;;
21567;SDS011;10944;42.590;12.630;2022-09-02T01:20:37;7.57;;;3.70;;
21567;SDS011;10944;42.590;12.630;2022-09-02T01:23:03;6.53;;;3.65;;
21567;SDS011;10944;42.590;12.630;2022-09-02T01:25:30;5.38;;;3.58;;
21567;SDS011;10944;42.590;12.630;2022-09-02T01:28:01;9.45;;;3.67;;
21567;SDS011;10944;42.590;12.630;2022-09-02T01:30:30;3.85;;;2.10;;
21567;SDS011;10944;42.590;12.630;2022-09-02T01:32:57;6.22;;;2.83;;
21567;SDS011;10944;42.590;12.630;2022-09-02T01:35:22;5.38;;;1.65;;
21567;SDS011;10944;42.590;12.630;2022-09-02T01:37:48;3.40;;;1.40;;
21567;SDS011;10944;42.590;12.630;2022-09-02T01:40:19;5.90;;;2.40;;
21567;SDS011;10944;42.590;12.630;2022-09-02T01:42:45;4.60;;;1.25;;
21567;SDS011;10944;42.590;12.630;2022-09-02T01:45:11;3.65;;;1.80;;
21567;SDS011;10944;42.590;12.630;2022-09-02T01:47:39;4.80;;;2.65;;
21567;SDS011;10944;42.590;12.630;2022-09-02T01:50:05;4.30;;;2.60;;
21567;SDS011;10944;42.590;12.630;2022-09-02T01:52:32;7.90;;;3.50;;
21567;SDS011;10944;42.590;12.630;2022-09-02T01:54:58;6.82;;;4.22;;
21567;SDS011;10944;42.590;12.630;2022-09-02T01:57:24;5.85;;;2.88;;
21567;SDS011;10944;42.590;12.630;2022-09-02T01:59:51;7.88;;;2.47;;
21567;SDS011;10944;42.590;12.630;2022-09-02T02:02:18;6.47;;;3.03;;
21567;SDS011;10944;42.590;12.630;2022-09-02T02:04:45;4.07;;;2.47;;
21567;SDS011;10944;42.590;12.630;2022-09-02T02:07:14;9.02;;;3.17;;
21567;SDS011;10944;42.590;12.630;2022-09-02T02:09:42;6.95;;;3.63;;
21567;SDS011;10944;42.590;12.630;2022-09-02T02:12:08;6.25;;;3.30;;
21567;SDS011;10944;42.590;12.630;2022-09-02T02:14:34;6.10;;;3.75;;
21567;SDS011;10944;42.590;12.630;2022-09-02T02:17:00;6.63;;;4.10;;
21567;SDS011;10944;42.590;12.630;2022-09-02T02:19:26;4.85;;;2.10;;
21567;SDS011;10944;42.590;12.630;2022-09-02T02:21:52;5.28;;;2.00;;
21567;SDS011;10944;42.590;12.630;2022-09-02T02:24:18;5.40;;;2.30;;
21567;SDS011;10944;42.590;12.630;2022-09-02T02:26:45;9.25;;;2.42;;
21567;SDS011;10944;42.590;12.630;2022-09-02T02:29:11;11.27;;;2.70;;
21567;SDS011;10944;42.590;12.630;2022-09-02T02:31:37;8.05;;;3.08;;
21567;SDS011;10944;42.590;12.630;2022-09-02T02:34:03;10.05;;;3.63;;
21567;SDS011;10944;42.590;12.630;2022-09-02T02:36:29;6.28;;;3.72;;
21567;SDS011;10944;42.590;12.630;2022-09-02T02:38:55;7.50;;;3.15;;
21567;SDS011;10944;42.590;12.630;2022-09-02T02:41:21;9.05;;;3.53;;
21567;SDS011;10944;42.590;12.630;2022-09-02T02:43:47;5.68;;;3.65;;
21567;SDS011;10944;42.590;12.630;2022-09-02T02:46:12;7.88;;;3.40;;
21567;SDS011;10944;42.590;12.630;2022-09-02T02:48:39;7.45;;;3.65;;
21567;SDS011;10944;42.590;12.630;2022-09-02T02:51:05;8.07;;;3.70;;
21567;SDS011;10944;42.590;12.630;2022-09-02T02:53:32;10.85;;;3.70;;
21567;SDS011;10944;42.590;12.630;2022-09-02T02:56:00;10.80;;;4.15;;
21567;SDS011;10944;42.590;12.630;2022-09-02T02:58:27;9.20;;;4.72;;
21567;SDS011;10944;42.590;12.630;2022-09-02T03:00:54;11.90;;;4.65;;
21567;SDS011;10944;42.590;12.630;2022-09-02T03:03:20;7.72;;;4.72;;
21567;SDS011;10944;42.590;12.630;2022-09-02T03:05:46;9.63;;;5.10;;
21567;SDS011;10944;42.590;12.630;2022-09-02T03:08:13;11.77;;;4.50;;
21567;SDS011;10944;42.590;12.630;2022-09-02T03:10:40;9.50;;;4.55;;
21567;SDS011;10944;42.590;12.630;2022-09-02T03:13:08;8.00;;;4.38;;
21567;SDS011;10944;42.590;12.630;2022-09-02T03:15:35;11.80;;;4.65;;
21567;SDS011;10944;42.590;12.630;2022-09-02T03:18:02;7.78;;;4.60;;
21567;SDS011;10944;42.590;12.630;2022-09-02T03:20:28;7.38;;;4.32;;
21567;SDS011;10944;42.590;12.630;2022-09-02T03:22:55;11.18;;;4.68;;
21567;SDS011;10944;42.590;12.630;2022-09-02T03:25:23;8.23;;;4.80;;
21567;SDS011;10944;42.590;12.630;2022-09-02T03:27:50;11.88;;;4.60;;
21567;SDS011;10944;42.590;12.630;2022-09-02T03:30:23;8.73;;;4.88;;
21567;SDS011;10944;42.590;12.630;2022-09-02T03:32:53;8.00;;;4.70;;
21567;SDS011;10944;42.590;12.630;2022-09-02T03:35:21;9.32;;;4.85;;
21567;SDS011;10944;42.590;12.630;2022-09-02T03:37:47;8.00;;;4.63;;
21567;SDS011;10944;42.590;12.630;2022-09-02T03:40:16;8.98;;;4.43;;
21567;SDS011;10944;42.590;12.630;2022-09-02T03:42:44;9.40;;;4.65;;
21567;SDS011;10944;42.590;12.630;2022-09-02T03:45:10;9.80;;;4.78;;
21567;SDS011;10944;42.590;12.630;2022-09-02T03:47:38;11.93;;;5.20;;
21567;SDS011;10944;42.590;12.630;2022-09-02T03:50:09;7.72;;;4.70;;
21567;SDS011;10944;42.590;12.630;2022-09-02T03:52:35;7.28;;;4.30;;
21567;SDS011;10944;42.590;12.630;2022-09-02T03:55:01;8.40;;;4.47;;
21567;SDS011;10944;42.590;12.630;2022-09-02T03:57:30;9.88;;;5.30;;
21567;SDS011;10944;42.590;12.630;2022-09-02T03:59:56;9.98;;;4.30;;
21567;SDS011;10944;42.590;12.630;2022-09-02T04:02:22;9.23;;;4.43;;
21567;SDS011;10944;42.590;12.630;2022-09-02T04:04:48;8.93;;;4.40;;
21567;SDS011;10944;42.590;12.630;2022-09-02T04:07:14;7.80;;;4.32;;
21567;SDS011;10944;42.590;12.630;2022-09-02T04:09:40;7.93;;;4.30;;
21567;SDS011;10944;42.590;12.630;2022-09-02T04:12:05;8.85;;;3.80;;
21567;SDS011;10944;42.590;12.630;2022-09-02T04:14:31;12.98;;;3.33;;
21567;SDS011;10944;42.590;12.630;2022-09-02T04:16:57;7.82;;;3.45;;
21567;SDS011;10944;42.590;12.630;2022-09-02T04:19:23;7.47;;;3.28;;
21567;SDS011;10944;42.590;12.630;2022-09-02T04:21:49;9.85;;;3.65;;
21567;SDS011;10944;42.590;12.630;2022-09-02T04:24:15;7.93;;;3.53;;
21567;SDS011;10944;42.590;12.630;2022-09-02T04:26:40;5.22;;;3.13;;
21567;SDS011;10944;42.590;12.630;2022-09-02T04:29:06;5.95;;;3.45;;
21567;SDS011;10944;42.590;12.630;2022-09-02T04:31:34;7.10;;;3.42;;
21567;SDS011;10944;42.590;12.630;2022-09-02T04:34:00;9.73;;;4.43;;
21567;SDS011;10944;42.590;12.630;2022-09-02T04:36:27;7.28;;;3.92;;
21567;SDS011;10944;42.590;12.630;2022-09-02T04:38:53;6.28;;;4.20;;
21567;SDS011;10944;42.590;12.630;2022-09-02T04:41:24;7.38;;;4.10;;
21567;SDS011;10944;42.590;12.630;2022-09-02T04:43:54;9.82;;;5.20;;
21567;SDS011;10944;42.590;12.630;2022-09-02T04:46:20;8.90;;;4.75;;
21567;SDS011;10944;42.590;12.630;2022-09-02T04:48:47;8.57;;;3.95;;
21567;SDS011;10944;42.590;12.630;2022-09-02T04:51:15;7.15;;;4.35;;
21567;SDS011;10944;42.590;12.630;2022-09-02T04:53:45;7.57;;;4.07;;
21567;SDS011;10944;42.590;12.630;2022-09-02T04:56:14;9.77;;;4.00;;
21567;SDS011;10944;42.590;12.630;2022-09-02T04:58:42;8.23;;;3.63;;
21567;SDS011;10944;42.590;12.630;2022-09-02T05:01:12;9.20;;;4.20;;
21567;SDS011;10944;42.590;12.630;2022-09-02T05:03:41;9.95;;;4.35;;
21567;SDS011;10944;42.590;12.630;2022-09-02T05:06:09;9.02;;;4.00;;
21567;SDS011;10944;42.590;12.630;2022-09-02T05:08:36;8.00;;;3.97;;
21567;SDS011;10944;42.590;12.630;2022-09-02T05:11:05;8.90;;;4.10;;
21567;SDS011;10944;42.590;12.630;2022-09-02T05:13:35;5.47;;;3.78;;
21567;SDS011;10944;42.590;12.630;2022-09-02T05:16:01;6.78;;;3.75;;
21567;SDS011;10944;42.590;12.630;2022-09-02T05:18:27;8.38;;;4.38;;
21567;SDS011;10944;42.590;12.630;2022-09-02T05:20:54;7.20;;;4.43;;
21567;SDS011;10944;42.590;12.630;2022-09-02T05:23:20;7.32;;;3.83;;
21567;SDS011;10944;42.590;12.630;2022-09-02T05:25:46;6.43;;;3.70;;
21567;SDS011;10944;42.590;12.630;2022-09-02T05:28:12;6.93;;;3.72;;
21567;SDS011;10944;42.590;12.630;2022-09-02T05:30:38;7.70;;;4.15;;
21567;SDS011;10944;42.590;12.630;2022-09-02T05:33:06;10.30;;;3.60;;
21567;SDS011;10944;42.590;12.630;2022-09-02T05:35:32;8.52;;;3.72;;
21567;SDS011;10944;42.590;12.630;2022-09-02T05:37:58;9.98;;;3.70;;
21567;SDS011;10944;42.590;12.630;2022-09-02T05:40:24;6.90;;;3.67;;
21567;SDS011;10944;42.590;12.630;2022-09-02T05:42:50;10.55;;;3.90;;
21567;SDS011;10944;42.590;12.630;2022-09-02T05:45:16;9.77;;;4.25;;
21567;SDS011;10944;42.590;12.630;2022-09-02T05:47:42;7.22;;;4.07;;
21567;SDS011;10944;42.590;12.630;2022-09-02T05:50:08;5.43;;;3.80;;
21567;SDS011;10944;42.590;12.630;2022-09-02T05:52:34;8.80;;;4.18;;
21567;SDS011;10944;42.590;12.630;2022-09-02T05:55:00;8.90;;;3.83;;
21567;SDS011;10944;42.590;12.630;2022-09-02T05:57:27;9.43;;;3.40;;
21567;SDS011;10944;42.590;12.630;2022-09-02T05:59:53;7.18;;;3.20;;
21567;SDS011;10944;42.590;12.630;2022-09-02T06:02:21;6.78;;;3.00;;
21567;SDS011;10944;42.590;12.630;2022-09-02T06:04:49;11.00;;;3.00;;
21567;SDS011;10944;42.590;12.630;2022-09-02T06:07:18;4.20;;;2.67;;
21567;SDS011;10944;42.590;12.630;2022-09-02T06:09:45;7.47;;;2.92;;
21567;SDS011;10944;42.590;12.630;2022-09-02T06:12:12;7.22;;;2.60;;
21567;SDS011;10944;42.590;12.630;2022-09-02T06:14:39;4.20;;;2.58;;
21567;SDS011;10944;42.590;12.630;2022-09-02T06:17:07;7.53;;;2.80;;
21567;SDS011;10944;42.590;12.630;2022-09-02T06:19:33;5.10;;;2.60;;
21567;SDS011;10944;42.590;12.630;2022-09-02T06:21:59;7.45;;;2.70;;
21567;SDS011;10944;42.590;12.630;2022-09-02T06:24:27;10.07;;;2.85;;
21567;SDS011;10944;42.590;12.630;2022-09-02T06:26:54;6.00;;;2.85;;
21567;SDS011;10944;42.590;12.630;2022-09-02T06:29:20;6.05;;;2.55;;
21567;SDS011;10944;42.590;12.630;2022-09-02T06:31:47;4.22;;;2.70;;
21567;SDS011;10944;42.590;12.630;2022-09-02T06:34:14;8.10;;;2.80;;
21567;SDS011;10944;42.590;12.630;2022-09-02T06:36:42;4.82;;;2.70;;
21567;SDS011;10944;42.590;12.630;2022-09-02T06:39:12;6.65;;;2.50;;
21567;SDS011;10944;42.590;12.630;2022-09-02T06:41:40;7.32;;;2.55;;
21567;SDS011;10944;42.590;12.630;2022-09-02T06:44:08;5.88;;;2.40;;
21567;SDS011;10944;42.590;12.630;2022-09-02T06:46:37;6.13;;;2.30;;
21567;SDS011;10944;42.590;12.630;2022-09-02T06:49:06;5.43;;;2.20;;
21567;SDS011;10944;42.590;12.630;2022-09-02T06:51:34;5.05;;;2.38;;
21567;SDS011;10944;42.590;12.630;2022-09-02T06:54:01;5.30;;;2.40;;
21567;SDS011;10944;42.590;12.630;2022-09-02T06:56:28;8.55;;;2.80;;
21567;SDS011;10944;42.590;12.630;2022-09-02T06:58:54;4.85;;;2.28;;
21567;SDS011;10944;42.590;12.630;2022-09-02T07:01:29;7.35;;;2.47;;
21567;SDS011;10944;42.590;12.630;2022-09-02T07:03:56;3.05;;;1.95;;
21567;SDS011;10944;42.590;12.630;2022-09-02T07:06:50;5.55;;;2.20;;
21567;SDS011;10944;42.590;12.630;2022-09-02T07:09:19;3.63;;;1.90;;
21567;SDS011;10944;42.590;12.630;2022-09-02T07:11:47;3.85;;;1.90;;
21567;SDS011;10944;42.590;12.630;2022-09-02T07:14:18;6.35;;;2.88;;
21567;SDS011;10944;42.590;12.630;2022-09-02T07:16:48;4.43;;;2.20;;
21567;SDS011;10944;42.590;12.630;2022-09-02T07:19:15;3.83;;;1.92;;
21567;SDS011;10944;42.590;12.630;2022-09-02T07:21:42;7.22;;;2.10;;
21567;SDS011;10944;42.590;12.630;2022-09-02T07:24:09;3.33;;;1.95;;
21567;SDS011;10944;42.590;12.630;2022-09-02T07:26:36;6.38;;;2.22;;
21567;SDS011;10944;42.590;12.630;2022-09-02T07:29:03;5.90;;;2.20;;
21567;SDS011;10944;42.590;12.630;2022-09-02T07:31:32;6.05;;;2.15;;
21567;SDS011;10944;42.590;12.630;2022-09-02T07:34:03;5.07;;;2.00;;
21567;SDS011;10944;42.590;12.630;2022-09-02T07:36:30;6.18;;;2.10;;
21567;SDS011;10944;42.590;12.630;2022-09-02T07:38:59;4.55;;;2.00;;
21567;SDS011;10944;42.590;12.630;2022-09-02T07:41:25;4.65;;;2.00;;
21567;SDS011;10944;42.590;12.630;2022-09-02T07:43:51;4.40;;;1.95;;
21567;SDS011;10944;42.590;12.630;2022-09-02T07:46:17;5.28;;;2.00;;
21567;SDS011;10944;42.590;12.630;2022-09-02T07:48:43;4.05;;;1.90;;
21567;SDS011;10944;42.590;12.630;2022-09-02T07:51:09;6.00;;;1.90;;
21567;SDS011;10944;42.590;12.630;2022-09-02T07:53:35;7.50;;;2.33;;
21567;SDS011;10944;42.590;12.630;2022-09-02T07:56:01;4.32;;;2.05;;
21567;SDS011;10944;42.590;12.630;2022-09-02T07:58:28;4.78;;;1.95;;
21567;SDS011;10944;42.590;12.630;2022-09-02T08:00:54;8.68;;;2.17;;
21567;SDS011;10944;42.590;12.630;2022-09-02T08:03:21;4.60;;;1.83;;
21567;SDS011;10944;42.590;12.630;2022-09-02T08:05:50;4.65;;;2.17;;
21567;SDS011;10944;42.590;12.630;2022-09-02T08:08:17;5.43;;;2.15;;
21567;SDS011;10944;42.590;12.630;2022-09-02T08:10:47;5.35;;;1.88;;
21567;SDS011;10944;42.590;12.630;2022-09-02T08:13:14;7.95;;;2.30;;
21567;SDS011;10944;42.590;12.630;2022-09-02T08:15:41;6.25;;;2.28;;
21567;SDS011;10944;42.590;12.630;2022-09-02T08:18:08;5.50;;;2.35;;
21567;SDS011;10944;42.590;12.630;2022-09-02T08:20:35;5.18;;;2.42;;
21567;SDS011;10944;42.590;12.630;2022-09-02T08:23:04;4.50;;;2.17;;
21567;SDS011;10944;42.590;12.630;2022-09-02T08:25:30;4.45;;;2.47;;
21567;SDS011;10944;42.590;12.630;2022-09-02T08:27:57;4.10;;;1.95;;
21567;SDS011;10944;42.590;12.630;2022-09-02T08:30:23;6.45;;;2.40;;
21567;SDS011;10944;42.590;12.630;2022-09-02T08:32:49;3.55;;;2.30;;
21567;SDS011;10944;42.590;12.630;2022-09-02T08:35:14;8.73;;;2.70;;
21567;SDS011;10944;42.590;12.630;2022-09-02T08:37:41;6.18;;;2.28;;
21567;SDS011;10944;42.590;12.630;2022-09-02T08:40:07;4.35;;;2.25;;
21567;SDS011;10944;42.590;12.630;2022-09-02T08:42:42;3.90;;;2.00;;
21567;SDS011;10944;42.590;12.630;2022-09-02T08:45:23;5.72;;;1.90;;
21567;SDS011;10944;42.590;12.630;2022-09-02T08:50:45;3.90;;;2.00;;
21567;SDS011;10944;42.590;12.630;2022-09-02T08:56:08;4.13;;;1.95;;
21567;SDS011;10944;42.590;12.630;2022-09-02T08:58:40;4.80;;;1.88;;
21567;SDS011;10944;42.590;12.630;2022-09-02T09:17:04;4.40;;;2.20;;
21567;SDS011;10944;42.590;12.630;2022-09-02T09:19:51;5.35;;;2.10;;
21567;SDS011;10944;42.590;12.630;2022-09-02T09:22:19;3.92;;;1.95;;
21567;SDS011;10944;42.590;12.630;2022-09-02T09:24:49;4.28;;;2.05;;
21567;SDS011;10944;42.590;12.630;2022-09-02T09:27:16;6.72;;;2.00;;
21567;SDS011;10944;42.590;12.630;2022-09-02T09:29:43;3.75;;;1.90;;
21567;SDS011;10944;42.590;12.630;2022-09-02T09:34:59;5.15;;;2.20;;
21567;SDS011;10944;42.590;12.630;2022-09-02T09:45:46;3.90;;;1.98;;
21567;SDS011;10944;42.590;12.630;2022-09-02T09:50:44;4.93;;;1.80;;
21567;SDS011;10944;42.590;12.630;2022-09-02T09:53:16;2.95;;;1.80;;
21567;SDS011;10944;42.590;12.630;2022-09-02T09:58:21;5.50;;;1.88;;
21567;SDS011;10944;42.590;12.630;2022-09-02T10:00:54;3.70;;;2.00;;
21567;SDS011;10944;42.590;12.630;2022-09-02T10:03:25;4.85;;;2.33;;
21567;SDS011;10944;42.590;12.630;2022-09-02T10:05:53;4.55;;;2.00;;
21567;SDS011;10944;42.590;12.630;2022-09-02T10:08:22;3.50;;;2.15;;
21567;SDS011;10944;42.590;12.630;2022-09-02T10:10:56;5.55;;;2.05;;
21567;SDS011;10944;42.590;12.630;2022-09-02T10:13:27;5.20;;;1.95;;
21567;SDS011;10944;42.590;12.630;2022-09-02T10:26:48;5.18;;;1.90;;
21567;SDS011;10944;42.590;12.630;2022-09-02T10:34:31;2.95;;;1.92;;
21567;SDS011;10944;42.590;12.630;2022-09-02T10:37:17;5.25;;;2.22;;
21567;SDS011;10944;42.590;12.630;2022-09-02T10:39:59;5.72;;;1.83;;
21567;SDS011;10944;42.590;12.630;2022-09-02T10:42:30;2.72;;;1.67;;
21567;SDS011;10944;42.590;12.630;2022-09-02T10:45:47;4.90;;;2.00;;
21567;SDS011;10944;42.590;12.630;2022-09-02T10:57:05;3.38;;;1.90;;
21567;SDS011;10944;42.590;12.630;2022-09-02T11:02:07;4.85;;;1.85;;
21567;SDS011;10944;42.590;12.630;2022-09-02T11:10:10;3.45;;;1.73;;
21567;SDS011;10944;42.590;12.630;2022-09-02T11:13:00;3.35;;;2.00;;
21567;SDS011;10944;42.590;12.630;2022-09-02T11:18:18;3.45;;;1.73;;
21567;SDS011;10944;42.590;12.630;2022-09-02T11:24:13;5.47;;;2.58;;
21567;SDS011;10944;42.590;12.630;2022-09-02T11:29:19;3.60;;;1.90;;
21567;SDS011;10944;42.590;12.630;2022-09-02T11:31:57;3.53;;;1.95;;
21567;SDS011;10944;42.590;12.630;2022-09-02T11:37:06;3.97;;;1.67;;
21567;SDS011;10944;42.590;12.630;2022-09-02T11:42:13;3.85;;;1.90;;
21567;SDS011;10944;42.590;12.630;2022-09-02T11:50:11;4.82;;;1.73;;
21567;SDS011;10944;42.590;12.630;2022-09-02T11:55:30;3.90;;;1.85;;
21567;SDS011;10944;42.590;12.630;2022-09-02T11:58:03;4.10;;;1.70;;
21567;SDS011;10944;42.590;12.630;2022-09-02T12:00:33;4.07;;;1.40;;
21567;SDS011;10944;42.590;12.630;2022-09-02T12:10:58;3.05;;;1.50;;
21567;SDS011;10944;42.590;12.630;2022-09-02T12:21:25;5.53;;;2.90;;
21567;SDS011;10944;42.590;12.630;2022-09-02T12:28:52;3.75;;;1.77;;
21567;SDS011;10944;42.590;12.630;2022-09-02T12:31:38;4.07;;;1.48;;
21567;SDS011;10944;42.590;12.630;2022-09-02T12:34:52;3.40;;;1.38;;
21567;SDS011;10944;42.590;12.630;2022-09-02T12:36:57;4.20;;;1.50;;
21567;SDS011;10944;42.590;12.630;2022-09-02T12:47:38;3.55;;;1.35;;
21567;SDS011;10944;42.590;12.630;2022-09-02T12:50:32;5.05;;;1.50;;
21567;SDS011;10944;42.590;12.630;2022-09-02T12:53:34;3.10;;;1.55;;
21567;SDS011;10944;42.590;12.630;2022-09-02T12:58:32;3.40;;;1.50;;
21567;SDS011;10944;42.590;12.630;2022-09-02T13:01:12;3.25;;;1.50;;
21567;SDS011;10944;42.590;12.630;2022-09-02T13:21:15;4.43;;;1.50;;
21567;SDS011;10944;42.590;12.630;2022-09-02T13:32:12;4.90;;;1.60;;
21567;SDS011;10944;42.590;12.630;2022-09-02T13:34:45;2.97;;;1.45;;
21567;SDS011;10944;42.590;12.630;2022-09-02T13:40:03;3.75;;;1.45;;
21567;SDS011;10944;42.590;12.630;2022-09-02T13:42:50;4.90;;;1.33;;
21567;SDS011;10944;42.590;12.630;2022-09-02T13:45:21;4.20;;;1.33;;
21567;SDS011;10944;42.590;12.630;2022-09-02T13:47:55;2.58;;;1.23;;
21567;SDS011;10944;42.590;12.630;2022-09-02T13:50:24;3.95;;;1.35;;
21567;SDS011;10944;42.590;12.630;2022-09-02T13:52:58;2.55;;;1.30;;
21567;SDS011;10944;42.590;12.630;2022-09-02T13:55:26;3.70;;;1.30;;
21567;SDS011;10944;42.590;12.630;2022-09-02T13:58:00;4.30;;;1.35;;
21567;SDS011;10944;42.590;12.630;2022-09-02T14:00:34;2.50;;;1.20;;
21567;SDS011;10944;42.590;12.630;2022-09-02T14:03:18;2.15;;;1.20;;
21567;SDS011;10944;42.590;12.630;2022-09-02T14:05:46;3.88;;;1.15;;
21567;SDS011;10944;42.590;12.630;2022-09-02T14:08:15;3.45;;;1.27;;
21567;SDS011;10944;42.590;12.630;2022-09-02T14:10:53;4.18;;;1.38;;
21567;SDS011;10944;42.590;12.630;2022-09-02T14:13:20;4.20;;;1.15;;
21567;SDS011;10944;42.590;12.630;2022-09-02T14:15:47;1.40;;;0.85;;
21567;SDS011;10944;42.590;12.630;2022-09-02T14:18:16;2.25;;;0.90;;
21567;SDS011;10944;42.590;12.630;2022-09-02T14:23:20;1.73;;;0.80;;
21567;SDS011;10944;42.590;12.630;2022-09-02T14:25:51;5.07;;;2.00;;
21567;SDS011;10944;42.590;12.630;2022-09-02T14:28:23;2.30;;;1.10;;
21567;SDS011;10944;42.590;12.630;2022-09-02T14:36:01;3.13;;;0.90;;
21567;SDS011;10944;42.590;12.630;2022-09-02T14:41:10;1.33;;;0.57;;
21567;SDS011;10944;42.590;12.630;2022-09-02T14:46:32;1.20;;;0.60;;
21567;SDS011;10944;42.590;12.630;2022-09-02T14:49:06;1.27;;;0.50;;
21567;SDS011;10944;42.590;12.630;2022-09-02T14:51:53;1.10;;;0.50;;
21567;SDS011;10944;42.590;12.630;2022-09-02T14:54:37;2.38;;;0.40;;
21567;SDS011;10944;42.590;12.630;2022-09-02T14:57:27;1.48;;;0.63;;
21567;SDS011;10944;42.590;12.630;2022-09-02T14:59:56;1.08;;;0.60;;
21567;SDS011;10944;42.590;12.630;2022-09-02T15:02:34;2.15;;;0.70;;
21567;SDS011;10944;42.590;12.630;2022-09-02T15:05:01;1.63;;;0.70;;
21567;SDS011;10944;42.590;12.630;2022-09-02T15:07:30;2.03;;;0.80;;
21567;SDS011;10944;42.590;12.630;2022-09-02T15:09:56;0.90;;;0.60;;
21567;SDS011;10944;42.590;12.630;2022-09-02T15:12:23;0.75;;;0.60;;
21567;SDS011;10944;42.590;12.630;2022-09-02T15:14:53;1.13;;;0.60;;
21567;SDS011;10944;42.590;12.630;2022-09-02T15:17:20;1.48;;;0.70;;
21567;SDS011;10944;42.590;12.630;2022-09-02T15:19:46;0.98;;;0.50;;
21567;SDS011;10944;42.590;12.630;2022-09-02T15:22:12;1.00;;;0.70;;
21567;SDS011;10944;42.590;12.630;2022-09-02T15:24:39;1.83;;;0.85;;
21567;SDS011;10944;42.590;12.630;2022-09-02T15:27:07;3.47;;;1.30;;
21567;SDS011;10944;42.590;12.630;2022-09-02T15:29:37;5.85;;;0.98;;
21567;SDS011;10944;42.590;12.630;2022-09-02T15:32:03;2.70;;;0.90;;
21567;SDS011;10944;42.590;12.630;2022-09-02T15:34:30;2.20;;;1.15;;
21567;SDS011;10944;42.590;12.630;2022-09-02T15:36:56;3.35;;;1.30;;
21567;SDS011;10944;42.590;12.630;2022-09-02T15:39:23;2.88;;;1.75;;
21567;SDS011;10944;42.590;12.630;2022-09-02T15:41:49;4.18;;;1.10;;
21567;SDS011;10944;42.590;12.630;2022-09-02T15:44:18;3.03;;;1.40;;
21567;SDS011;10944;42.590;12.630;2022-09-02T15:46:44;2.50;;;1.00;;
21567;SDS011;10944;42.590;12.630;2022-09-02T15:49:11;1.73;;;1.02;;
21567;SDS011;10944;42.590;12.630;2022-09-02T15:51:39;2.95;;;1.33;;
21567;SDS011;10944;42.590;12.630;2022-09-02T15:54:09;2.33;;;0.93;;
21567;SDS011;10944;42.590;12.630;2022-09-02T15:56:37;1.42;;;1.00;;
21567;SDS011;10944;42.590;12.630;2022-09-02T15:59:06;3.53;;;1.10;;
21567;SDS011;10944;42.590;12.630;2022-09-02T16:01:33;2.17;;;1.27;;
21567;SDS011;10944;42.590;12.630;2022-09-02T16:04:02;3.67;;;1.80;;
21567;SDS011;10944;42.590;12.630;2022-09-02T16:06:30;2.22;;;1.20;;
21567;SDS011;10944;42.590;12.630;2022-09-02T16:08:59;2.30;;;0.80;;
21567;SDS011;10944;42.590;12.630;2022-09-02T16:11:25;1.83;;;0.90;;
21567;SDS011;10944;42.590;12.630;2022-09-02T16:13:51;1.30;;;0.80;;
21567;SDS011;10944;42.590;12.630;2022-09-02T16:16:17;2.58;;;0.82;;
21567;SDS011;10944;42.590;12.630;2022-09-02T16:18:43;2.25;;;1.05;;
21567;SDS011;10944;42.590;12.630;2022-09-02T16:21:13;1.90;;;1.10;;
21567;SDS011;10944;42.590;12.630;2022-09-02T16:23:38;6.05;;;1.00;;
21567;SDS011;10944;42.590;12.630;2022-09-02T16:26:05;2.92;;;0.80;;
21567;SDS011;10944;42.590;12.630;2022-09-02T16:28:38;2.15;;;1.10;;
21567;SDS011;10944;42.590;12.630;2022-09-02T16:31:09;4.10;;;0.80;;
21567;SDS011;10944;42.590;12.630;2022-09-02T16:33:41;2.08;;;0.70;;
21567;SDS011;10944;42.590;12.630;2022-09-02T16:36:08;2.70;;;0.80;;
21567;SDS011;10944;42.590;12.630;2022-09-02T16:38:34;1.60;;;0.90;;
21567;SDS011;10944;42.590;12.630;2022-09-02T16:41:00;1.92;;;1.00;;
21567;SDS011;10944;42.590;12.630;2022-09-02T16:43:26;3.15;;;1.00;;
21567;SDS011;10944;42.590;12.630;2022-09-02T16:45:57;1.98;;;0.90;;
21567;SDS011;10944;42.590;12.630;2022-09-02T16:48:28;2.72;;;0.73;;
21567;SDS011;10944;42.590;12.630;2022-09-02T16:51:00;4.15;;;0.90;;
21567;SDS011;10944;42.590;12.630;2022-09-02T16:53:27;2.42;;;1.33;;
21567;SDS011;10944;42.590;12.630;2022-09-02T16:55:55;2.95;;;1.77;;
21567;SDS011;10944;42.590;12.630;2022-09-02T16:58:21;3.15;;;1.55;;
21567;SDS011;10944;42.590;12.630;2022-09-02T17:00:47;2.17;;;1.10;;
21567;SDS011;10944;42.590;12.630;2022-09-02T17:03:13;1.13;;;0.80;;
21567;SDS011;10944;42.590;12.630;2022-09-02T17:05:39;1.80;;;0.80;;
21567;SDS011;10944;42.590;12.630;2022-09-02T17:08:05;1.85;;;0.90;;
21567;SDS011;10944;42.590;12.630;2022-09-02T17:10:34;1.52;;;0.70;;
21567;SDS011;10944;42.590;12.630;2022-09-02T17:13:00;1.65;;;0.73;;
21567;SDS011;10944;42.590;12.630;2022-09-02T17:15:27;2.42;;;0.90;;
21567;SDS011;10944;42.590;12.630;2022-09-02T17:17:54;2.58;;;0.85;;
21567;SDS011;10944;42.590;12.630;2022-09-02T17:20:20;1.60;;;0.70;;
21567;SDS011;10944;42.590;12.630;2022-09-02T17:22:47;4.05;;;1.95;;
21567;SDS011;10944;42.590;12.630;2022-09-02T17:25:13;3.20;;;0.70;;
21567;SDS011;10944;42.590;12.630;2022-09-02T17:27:39;2.63;;;0.70;;
21567;SDS011;10944;42.590;12.630;2022-09-02T17:30:06;1.52;;;0.90;;